Time;durP1;ratioP1;P1;durP2;ratioP2;P2;SDS_P1;SDS_P2;PMS_P1;PMS_P2;Temp;Humidity;BMP_temperature;BMP_pressure;BME280_temperature;BME280_humidity;BME280_pressure;Samples;Min_cycle;Max_cycle;Signal;HPM_P1;HPM_P2
2023/08/05 00:01:06;;;;;;;2.38;1.15;;;18.20;70.50;;;;;;5039096;28;20476;-62
2023/08/05 00:03:32;;;;;;;1.15;1.10;;;18.20;70.60;;;;;;5012826;28;20449;-62
2023/08/05 00:05:57;;;;;;;1.73;1.30;;;18.10;70.70;;;;;;5017616;28;20120;-62
2023/08/05 00:08:24;;;;;;;1.95;1.20;;;18.20;70.70;;;;;;5036369;28;20036;-62
2023/08/05 00:10:50;;;;;;;2.55;1.20;;;18.20;70.40;;;;;;5045134;28;20041;-62
2023/08/05 00:13:16;;;;;;;2.28;1.25;;;18.10;70.40;;;;;;5042051;28;20075;-63
2023/08/05 00:15:42;;;;;;;3.67;1.42;;;18.10;70.60;;;;;;5033259;28;20488;-62
2023/08/05 00:18:08;;;;;;;1.38;1.20;;;18.10;70.60;;;;;;5028067;28;20040;-61
2023/08/05 00:20:34;;;;;;;2.83;1.63;;;18.00;70.70;;;;;;5038423;28;20137;-61
2023/08/05 00:22:59;;;;;;;2.20;1.33;;;18.00;70.90;;;;;;5039418;28;20021;-62
2023/08/05 00:25:25;;;;;;;2.33;1.40;;;18.00;70.90;;;;;;5046280;28;20029;-62
2023/08/05 00:27:51;;;;;;;1.67;1.20;;;18.30;71.50;;;;;;5035976;28;20036;-61
2023/08/05 00:30:16;;;;;;;1.75;1.33;;;18.00;70.90;;;;;;5041306;28;20045;-63
2023/08/05 00:32:42;;;;;;;2.25;1.30;;;18.00;71.00;;;;;;5041757;28;20036;-62
2023/08/05 00:35:08;;;;;;;1.67;1.58;;;18.00;71.30;;;;;;5045124;28;20056;-62
2023/08/05 00:37:34;;;;;;;2.05;1.48;;;18.00;71.30;;;;;;5042162;28;20032;-62
2023/08/05 00:40:00;;;;;;;1.63;1.50;;;18.00;71.40;;;;;;5037974;28;20029;-61
2023/08/05 00:42:26;;;;;;;1.90;1.27;;;18.00;71.50;;;;;;5035165;28;20185;-61
2023/08/05 00:44:52;;;;;;;2.85;1.23;;;18.00;71.50;;;;;;5045186;28;20029;-61
2023/08/05 00:47:19;;;;;;;3.97;1.17;;;18.00;71.50;;;;;;5043976;28;20049;-61
2023/08/05 00:49:46;;;;;;;4.00;1.40;;;18.00;71.70;;;;;;5043989;28;20083;-61
2023/08/05 00:52:14;;;;;;;2.67;1.30;;;18.00;71.80;;;;;;5042813;28;20029;-61
2023/08/05 00:54:40;;;;;;;1.52;1.25;;;18.00;71.70;;;;;;5043964;28;20052;-61
2023/08/05 00:57:06;;;;;;;1.80;1.27;;;18.00;71.70;;;;;;5045823;28;20142;-61
2023/08/05 00:59:32;;;;;;;2.72;1.30;;;18.00;71.60;;;;;;5040329;28;20017;-61
2023/08/05 01:01:58;;;;;;;2.10;1.45;;;18.00;71.60;;;;;;5048272;28;20036;-62
2023/08/05 01:04:24;;;;;;;1.48;1.38;;;18.10;71.60;;;;;;5042225;28;20021;-62
2023/08/05 01:06:50;;;;;;;2.08;1.42;;;18.00;71.70;;;;;;5044666;28;20414;-61
2023/08/05 01:09:16;;;;;;;3.65;1.40;;;18.00;71.70;;;;;;5046838;28;20045;-61
2023/08/05 01:11:42;;;;;;;1.65;1.40;;;18.10;71.80;;;;;;5041296;28;20079;-62
2023/08/05 01:14:08;;;;;;;3.28;1.58;;;18.10;71.50;;;;;;5036170;28;20036;-61
2023/08/05 01:16:33;;;;;;;2.70;1.45;;;18.10;71.50;;;;;;5042186;28;20536;-61
2023/08/05 01:19:03;;;;;;;4.85;1.75;;;18.10;71.40;;;;;;5039984;28;20507;-62
2023/08/05 01:21:41;;;;;;;2.10;1.40;;;18.10;71.90;;;;;;5046037;28;20029;-62
2023/08/05 01:24:24;;;;;;;2.75;1.80;;;18.00;72.30;;;;;;5041019;28;20568;-62
2023/08/05 01:26:51;;;;;;;2.20;1.60;;;18.10;72.30;;;;;;5042018;28;20082;-61
2023/08/05 01:29:17;;;;;;;4.43;1.90;;;18.10;71.80;;;;;;5043309;28;20098;-62
2023/08/05 01:31:45;;;;;;;2.15;1.95;;;18.10;71.50;;;;;;5040656;28;20029;-63
2023/08/05 01:34:12;;;;;;;4.35;1.88;;;18.10;71.40;;;;;;5038182;28;20032;-63
2023/08/05 01:36:37;;;;;;;4.28;2.20;;;18.10;71.40;;;;;;5026525;28;20083;-62
2023/08/05 01:39:03;;;;;;;4.10;2.08;;;18.00;71.40;;;;;;5037270;28;20452;-62
2023/08/05 01:41:29;;;;;;;4.30;2.25;;;18.00;71.50;;;;;;5026849;28;20434;-62
2023/08/05 01:43:54;;;;;;;3.55;2.35;;;18.00;71.80;;;;;;5044633;28;20369;-62
2023/08/05 01:46:20;;;;;;;4.45;2.20;;;17.90;71.70;;;;;;5045712;28;20025;-62
2023/08/05 01:48:46;;;;;;;2.53;2.25;;;18.00;72.00;;;;;;5029069;28;20033;-62
2023/08/05 01:51:11;;;;;;;5.53;2.97;;;18.00;72.20;;;;;;5048933;28;20551;-61
2023/08/05 01:53:37;;;;;;;4.15;2.90;;;18.00;72.40;;;;;;5042572;28;20024;-61
2023/08/05 01:56:03;;;;;;;6.40;2.72;;;18.00;72.60;;;;;;5016992;28;20870;-61
2023/08/05 01:58:28;;;;;;;4.57;2.90;;;18.00;72.30;;;;;;5037426;28;20033;-61
2023/08/05 02:00:54;;;;;;;4.05;2.83;;;17.90;72.20;;;;;;5040618;28;20043;-61
2023/08/05 02:03:20;;;;;;;4.72;2.97;;;17.90;72.30;;;;;;5036069;28;20367;-63
2023/08/05 02:05:46;;;;;;;5.53;2.90;;;17.90;72.50;;;;;;5046523;28;20139;-61
2023/08/05 02:08:12;;;;;;;3.13;2.65;;;17.90;72.50;;;;;;5044060;28;20060;-62
2023/08/05 02:10:37;;;;;;;5.53;3.75;;;17.90;72.70;;;;;;5020740;28;20123;-62
2023/08/05 02:13:04;;;;;;;4.20;2.97;;;17.90;72.60;;;;;;5026728;28;20052;-61
2023/08/05 02:15:30;;;;;;;4.40;2.78;;;17.90;72.60;;;;;;5045315;28;20025;-61
2023/08/05 02:17:55;;;;;;;4.40;3.15;;;17.90;72.60;;;;;;5046972;28;20031;-62
2023/08/05 02:20:21;;;;;;;5.15;2.97;;;18.00;72.60;;;;;;5045063;28;20430;-62
2023/08/05 02:22:47;;;;;;;5.03;3.20;;;18.00;72.50;;;;;;5025563;28;20052;-61
2023/08/05 02:25:12;;;;;;;3.70;2.75;;;18.00;72.50;;;;;;5042755;28;20057;-62
2023/08/05 02:27:38;;;;;;;3.30;2.58;;;17.90;72.30;;;;;;5044379;28;20071;-62
2023/08/05 02:30:05;;;;;;;4.63;3.00;;;17.90;72.60;;;;;;5049730;28;20041;-63
2023/08/05 02:32:30;;;;;;;6.65;3.22;;;17.90;72.50;;;;;;5048165;28;20121;-61
2023/08/05 02:34:56;;;;;;;5.75;3.42;;;17.90;72.60;;;;;;5045068;28;20104;-62
2023/08/05 02:37:22;;;;;;;5.22;3.28;;;17.90;72.90;;;;;;5035419;28;20033;-60
2023/08/05 02:39:47;;;;;;;7.00;4.00;;;17.90;72.90;;;;;;5043449;28;20040;-61
2023/08/05 02:42:13;;;;;;;4.72;3.30;;;17.90;72.60;;;;;;5041422;28;20026;-61
2023/08/05 02:44:39;;;;;;;7.97;3.80;;;17.90;72.70;;;;;;5045129;28;20372;-62
2023/08/05 02:47:04;;;;;;;7.43;3.22;;;17.90;72.80;;;;;;5022581;28;20034;-60
2023/08/05 02:49:32;;;;;;;7.30;3.90;;;17.90;72.90;;;;;;5045085;28;20045;-61
2023/08/05 02:51:58;;;;;;;5.90;3.45;;;17.90;72.90;;;;;;5040374;28;20100;-61
2023/08/05 02:54:23;;;;;;;4.75;3.38;;;17.90;72.80;;;;;;5045505;28;20113;-62
2023/08/05 02:56:49;;;;;;;4.88;3.70;;;17.90;72.70;;;;;;5037341;28;20064;-60
2023/08/05 02:59:15;;;;;;;5.07;3.22;;;17.90;72.70;;;;;;5043554;28;20043;-61
2023/08/05 03:01:41;;;;;;;4.90;3.40;;;17.90;72.60;;;;;;5035621;28;20132;-63
2023/08/05 03:04:07;;;;;;;4.68;2.97;;;17.80;72.70;;;;;;5039333;28;20108;-60
2023/08/05 03:06:32;;;;;;;4.93;3.30;;;17.80;72.70;;;;;;5036547;28;20383;-60
2023/08/05 03:08:58;;;;;;;6.45;3.42;;;17.90;72.70;;;;;;5036487;28;20047;-61
2023/08/05 03:11:24;;;;;;;6.05;3.38;;;17.90;72.80;;;;;;5042408;28;20033;-61
2023/08/05 03:13:50;;;;;;;6.78;3.40;;;17.90;72.70;;;;;;5038266;28;20029;-62
2023/08/05 03:16:16;;;;;;;4.45;3.00;;;17.90;72.50;;;;;;5041330;28;20043;-62
2023/08/05 03:18:41;;;;;;;6.15;3.20;;;17.90;72.50;;;;;;5025630;28;20017;-61
2023/08/05 03:21:07;;;;;;;5.75;3.20;;;17.90;72.70;;;;;;5039928;28;20108;-61
2023/08/05 03:23:33;;;;;;;3.92;2.90;;;17.90;72.60;;;;;;5025905;28;20064;-61
2023/08/05 03:25:58;;;;;;;6.05;3.75;;;17.90;72.50;;;;;;5042813;28;20570;-62
2023/08/05 03:28:24;;;;;;;4.57;3.53;;;18.00;72.50;;;;;;5044284;28;20135;-60
2023/08/05 03:30:50;;;;;;;5.18;3.35;;;17.90;72.50;;;;;;5046663;28;20071;-62
2023/08/05 03:33:15;;;;;;;4.93;3.40;;;17.90;72.20;;;;;;5037757;28;20067;-61
2023/08/05 03:35:45;;;;;;;5.32;3.30;;;17.90;72.10;;;;;;5042019;28;20025;-62
2023/08/05 03:38:11;;;;;;;5.45;3.05;;;17.90;72.30;;;;;;5040972;28;20049;-61
2023/08/05 03:40:36;;;;;;;5.40;3.53;;;17.90;72.20;;;;;;5015865;28;20029;-62
2023/08/05 03:43:03;;;;;;;6.75;3.67;;;17.90;72.10;;;;;;5038202;28;20040;-61
2023/08/05 03:45:28;;;;;;;5.43;3.50;;;17.90;72.20;;;;;;5021475;28;20472;-62
2023/08/05 03:47:57;;;;;;;8.02;4.20;;;17.90;72.20;;;;;;5037802;28;20052;-61
2023/08/05 03:50:23;;;;;;;4.85;3.53;;;17.80;72.40;;;;;;5038313;28;20120;-61
2023/08/05 03:52:49;;;;;;;5.88;3.45;;;17.80;72.00;;;;;;5036281;28;20096;-60
2023/08/05 03:55:19;;;;;;;10.23;3.80;;;17.80;72.10;;;;;;5044350;28;20036;-61
2023/08/05 03:57:46;;;;;;;5.40;3.63;;;17.80;72.40;;;;;;5040481;28;20041;-62
2023/08/05 04:00:12;;;;;;;7.68;4.30;;;17.80;72.20;;;;;;5040687;28;20018;-61
2023/08/05 04:02:38;;;;;;;5.22;3.63;;;17.80;72.40;;;;;;5038983;28;20472;-61
2023/08/05 04:05:04;;;;;;;6.05;3.67;;;17.80;72.50;;;;;;5047525;28;20033;-62
2023/08/05 04:07:33;;;;;;;3.90;3.45;;;17.70;72.30;;;;;;5039538;28;20112;-61
2023/08/05 04:10:00;;;;;;;8.35;3.75;;;17.80;72.60;;;;;;5040664;28;20120;-61
2023/08/05 04:12:26;;;;;;;4.20;3.13;;;17.70;72.40;;;;;;5042413;28;20480;-61
2023/08/05 04:14:53;;;;;;;4.32;3.47;;;17.70;72.50;;;;;;5045933;28;20030;-61
2023/08/05 04:17:20;;;;;;;5.25;4.15;;;17.70;72.60;;;;;;4962995;28;20025;-63
2023/08/05 04:19:47;;;;;;;7.15;3.83;;;17.70;72.50;;;;;;5047292;28;20025;-61
2023/08/05 04:22:14;;;;;;;7.30;3.58;;;17.70;72.60;;;;;;5032822;28;20025;-61
2023/08/05 04:24:41;;;;;;;7.75;3.42;;;17.70;72.80;;;;;;5025082;28;20376;-61
2023/08/05 04:27:08;;;;;;;8.00;3.83;;;17.70;72.80;;;;;;5039265;28;20120;-61
2023/08/05 04:29:34;;;;;;;6.18;3.40;;;17.70;73.00;;;;;;5048316;28;20029;-62
2023/08/05 04:32:00;;;;;;;6.10;3.60;;;17.70;73.00;;;;;;5044216;28;20493;-61
2023/08/05 04:34:25;;;;;;;4.78;3.47;;;17.70;72.80;;;;;;5047196;28;20025;-61
2023/08/05 04:36:52;;;;;;;5.40;3.72;;;17.80;72.90;;;;;;5049583;28;20021;-62
2023/08/05 04:39:21;;;;;;;5.75;3.63;;;17.80;73.00;;;;;;5039019;28;20028;-62
2023/08/05 04:41:47;;;;;;;6.00;3.92;;;17.80;73.10;;;;;;5040403;28;20025;-61
2023/08/05 04:44:13;;;;;;;3.80;3.38;;;17.80;72.70;;;;;;5043639;28;20209;-61
2023/08/05 04:46:39;;;;;;;6.97;4.20;;;17.80;72.60;;;;;;5043864;28;20104;-61
2023/08/05 04:49:07;;;;;;;6.43;3.95;;;17.80;72.70;;;;;;5049276;28;20045;-61
2023/08/05 04:51:34;;;;;;;5.45;4.18;;;17.80;72.50;;;;;;5042546;28;20029;-63
2023/08/05 04:54:00;;;;;;;6.88;3.90;;;17.70;72.50;;;;;;5043059;28;20029;-62
2023/08/05 04:56:26;;;;;;;8.65;4.22;;;17.80;72.70;;;;;;5049240;28;20120;-64
2023/08/05 04:58:52;;;;;;;9.85;4.25;;;17.70;72.50;;;;;;5040494;28;20034;-62
2023/08/05 05:01:18;;;;;;;7.03;4.13;;;17.70;72.60;;;;;;5040121;28;20107;-61
2023/08/05 05:03:48;;;;;;;5.13;3.78;;;17.70;72.80;;;;;;5044267;28;20021;-62
2023/08/05 05:06:14;;;;;;;5.35;3.92;;;17.70;72.90;;;;;;5027955;28;20037;-61
2023/08/05 05:08:40;;;;;;;8.05;4.18;;;17.70;72.90;;;;;;5045812;28;20031;-61
2023/08/05 05:11:07;;;;;;;6.85;4.47;;;17.70;72.80;;;;;;5045738;28;20116;-61
2023/08/05 05:13:33;;;;;;;5.40;4.00;;;17.70;72.70;;;;;;5042465;28;20025;-61
2023/08/05 05:16:02;;;;;;;7.05;4.55;;;17.70;72.70;;;;;;5042571;28;20039;-62
2023/08/05 05:18:27;;;;;;;5.15;4.10;;;17.70;72.80;;;;;;4935505;28;20117;-62
2023/08/05 05:20:54;;;;;;;6.40;4.13;;;17.70;73.00;;;;;;5048094;28;20112;-62
2023/08/05 05:23:20;;;;;;;8.10;4.32;;;17.70;73.10;;;;;;5047071;28;20025;-61
2023/08/05 05:25:46;;;;;;;8.35;3.88;;;17.70;73.10;;;;;;5043567;28;20020;-62
2023/08/05 05:28:12;;;;;;;8.93;4.10;;;17.70;73.50;;;;;;5053387;28;20096;-62
2023/08/05 05:30:38;;;;;;;9.45;4.82;;;17.70;73.60;;;;;;5037032;28;20086;-61
2023/08/05 05:33:04;;;;;;;8.93;3.95;;;17.70;74.30;;;;;;5040303;28;20056;-62
2023/08/05 05:35:29;;;;;;;7.85;3.97;;;17.70;73.40;;;;;;5044979;28;20090;-61
2023/08/05 05:37:55;;;;;;;6.68;4.18;;;17.70;73.40;;;;;;5036474;28;20648;-61
2023/08/05 05:40:21;;;;;;;6.70;4.38;;;17.80;73.50;;;;;;5040691;28;20032;-62
2023/08/05 05:42:50;;;;;;;6.70;4.25;;;17.80;73.30;;;;;;5044689;28;20033;-62
2023/08/05 05:45:16;;;;;;;6.07;4.43;;;17.90;73.30;;;;;;5039349;28;20029;-61
2023/08/05 05:47:42;;;;;;;7.25;4.20;;;17.90;73.20;;;;;;5041555;28;20025;-62
2023/08/05 05:50:08;;;;;;;6.35;4.15;;;17.90;73.00;;;;;;5045284;28;20037;-63
2023/08/05 05:52:34;;;;;;;7.00;4.50;;;17.90;73.00;;;;;;5037156;28;20032;-62
2023/08/05 05:55:02;;;;;;;7.40;4.63;;;17.90;72.90;;;;;;5046950;28;20044;-63
2023/08/05 05:57:28;;;;;;;6.57;4.22;;;17.90;72.80;;;;;;5042601;28;20048;-61
2023/08/05 05:59:54;;;;;;;8.25;4.82;;;18.00;73.00;;;;;;5043864;28;20108;-62
2023/08/05 06:02:20;;;;;;;4.80;4.30;;;18.00;73.00;;;;;;5040414;28;20116;-62
2023/08/05 06:04:47;;;;;;;8.10;4.50;;;18.00;73.00;;;;;;5037347;28;20112;-62
2023/08/05 06:07:13;;;;;;;8.70;4.50;;;18.00;73.20;;;;;;5044245;28;20033;-63
2023/08/05 06:09:38;;;;;;;6.97;4.43;;;18.10;73.50;;;;;;5041499;28;20111;-63
2023/08/05 06:12:05;;;;;;;8.55;4.57;;;18.10;73.40;;;;;;5040940;28;20033;-63
2023/08/05 06:14:31;;;;;;;7.30;3.88;;;18.20;73.10;;;;;;5036164;28;20033;-63
2023/08/05 06:17:02;;;;;;;6.53;4.60;;;18.30;73.10;;;;;;5040616;28;20036;-62
2023/08/05 06:19:33;;;;;;;6.10;4.47;;;18.30;73.00;;;;;;5017763;28;20376;-63
2023/08/05 06:21:58;;;;;;;8.55;4.47;;;18.40;72.90;;;;;;5040531;28;20029;-63
2023/08/05 06:24:24;;;;;;;7.53;4.70;;;18.50;72.90;;;;;;5036766;28;20079;-62
2023/08/05 06:26:50;;;;;;;9.05;4.80;;;18.50;72.80;;;;;;5036948;28;21724;-63
2023/08/05 06:29:15;;;;;;;7.18;4.60;;;18.60;72.70;;;;;;5041957;28;20089;-62
2023/08/05 06:31:41;;;;;;;4.88;4.15;;;18.60;72.30;;;;;;5041805;28;20034;-62
2023/08/05 06:34:07;;;;;;;7.25;4.90;;;18.70;72.20;;;;;;5037615;28;20025;-63
2023/08/05 06:36:32;;;;;;;7.50;4.65;;;18.70;72.20;;;;;;5021094;28;20030;-62
2023/08/05 06:38:58;;;;;;;5.75;4.05;;;18.70;72.20;;;;;;5042077;28;20063;-63
2023/08/05 06:41:23;;;;;;;6.95;3.45;;;18.80;72.10;;;;;;5036513;28;20080;-61
2023/08/05 06:43:50;;;;;;;6.20;4.07;;;18.80;72.00;;;;;;5041855;28;20036;-62
2023/08/05 06:46:16;;;;;;;5.22;3.75;;;18.80;71.90;;;;;;5040836;28;20119;-61
2023/08/05 06:48:41;;;;;;;5.35;3.42;;;18.90;71.60;;;;;;5039269;28;20147;-62
2023/08/05 06:51:07;;;;;;;5.47;4.20;;;18.90;71.50;;;;;;5037443;28;20116;-63
2023/08/05 06:53:33;;;;;;;5.03;3.83;;;18.90;71.20;;;;;;5045014;28;20131;-62
2023/08/05 06:56:03;;;;;;;7.80;3.83;;;18.90;71.40;;;;;;5041502;28;21665;-61
2023/08/05 06:58:29;;;;;;;8.23;3.85;;;18.90;72.00;;;;;;5041651;28;20028;-62
2023/08/05 07:00:55;;;;;;;6.82;4.10;;;18.90;71.10;;;;;;5039855;28;20021;-62
2023/08/05 07:03:23;;;;;;;9.23;4.00;;;18.90;71.00;;;;;;5036384;28;20033;-61
2023/08/05 07:05:49;;;;;;;6.70;4.28;;;18.90;70.90;;;;;;5043215;28;20028;-63
2023/08/05 07:08:14;;;;;;;5.95;4.05;;;18.90;71.00;;;;;;5043427;28;20553;-62
2023/08/05 07:10:40;;;;;;;10.23;4.32;;;19.00;71.10;;;;;;5042213;28;20037;-62
2023/08/05 07:13:07;;;;;;;6.13;3.63;;;19.00;71.30;;;;;;5041706;28;20039;-62
2023/08/05 07:15:36;;;;;;;6.20;3.90;;;19.10;71.60;;;;;;5038628;28;20460;-62
2023/08/05 07:18:03;;;;;;;14.88;4.07;;;19.10;71.20;;;;;;4988816;28;20033;-62
2023/08/05 07:20:29;;;;;;;5.40;3.75;;;19.20;71.80;;;;;;5035439;28;20040;-63
2023/08/05 07:22:54;;;;;;;5.95;3.67;;;19.30;71.90;;;;;;5039670;28;20028;-63
2023/08/05 07:25:20;;;;;;;4.85;3.63;;;19.40;71.70;;;;;;5039439;28;20043;-62
2023/08/05 07:27:46;;;;;;;4.82;3.55;;;19.50;71.30;;;;;;5037275;28;20442;-61
2023/08/05 07:30:11;;;;;;;6.90;3.50;;;19.60;71.00;;;;;;5038402;28;20771;-61
2023/08/05 07:32:37;;;;;;;73.93;7.70;;;19.70;70.70;;;;;;5032393;28;20029;-62
2023/08/05 07:35:03;;;;;;;17.88;4.38;;;19.80;70.40;;;;;;5042973;28;20064;-62
2023/08/05 07:37:31;;;;;;;10.13;3.53;;;19.80;70.20;;;;;;5035685;28;20036;-60
2023/08/05 07:39:57;;;;;;;20.50;5.35;;;19.90;70.00;;;;;;5046123;28;20515;-63
2023/08/05 07:42:25;;;;;;;5.97;3.65;;;20.00;69.50;;;;;;5048659;28;20488;-62
2023/08/05 07:44:52;;;;;;;24.13;4.60;;;20.00;69.10;;;;;;5048241;28;20033;-62
2023/08/05 07:47:18;;;;;;;4.82;3.15;;;20.00;69.00;;;;;;5048704;28;20033;-61
2023/08/05 07:49:45;;;;;;;4.50;3.08;;;20.10;69.10;;;;;;5037156;28;20045;-61
2023/08/05 07:52:10;;;;;;;4.25;3.28;;;20.10;69.10;;;;;;5047721;28;20031;-62
2023/08/05 07:54:36;;;;;;;6.20;3.17;;;20.10;69.10;;;;;;5047142;28;20029;-61
2023/08/05 07:57:02;;;;;;;4.38;3.42;;;20.20;68.90;;;;;;5043143;28;20065;-61
2023/08/05 07:59:30;;;;;;;6.07;3.15;;;20.30;68.30;;;;;;5044015;28;20043;-61
2023/08/05 08:01:57;;;;;;;3.50;2.97;;;20.30;68.40;;;;;;5037973;28;20028;-61
2023/08/05 08:04:22;;;;;;;5.05;3.70;;;20.40;68.10;;;;;;5046096;28;20029;-61
2023/08/05 08:06:48;;;;;;;5.75;3.08;;;20.40;67.50;;;;;;5040934;28;20729;-61
2023/08/05 08:09:14;;;;;;;7.15;3.33;;;20.40;67.20;;;;;;5046782;28;20069;-61
2023/08/05 08:11:40;;;;;;;6.00;3.58;;;20.40;67.00;;;;;;5038064;28;20060;-61
2023/08/05 08:14:06;;;;;;;6.22;3.40;;;20.40;66.60;;;;;;5047401;28;20040;-62
2023/08/05 08:16:32;;;;;;;7.53;4.43;;;20.30;66.20;;;;;;5049980;28;20021;-61
2023/08/05 08:18:58;;;;;;;6.68;3.97;;;20.30;66.60;;;;;;5041263;28;20108;-61
2023/08/05 08:21:24;;;;;;;3.97;3.30;;;20.30;67.00;;;;;;5043212;28;20128;-61
2023/08/05 08:23:49;;;;;;;4.85;3.05;;;20.30;67.00;;;;;;5061621;28;20029;-61
2023/08/05 08:26:15;;;;;;;3.75;2.40;;;20.30;67.40;;;;;;5046200;28;20060;-62
2023/08/05 08:28:41;;;;;;;6.05;2.92;;;20.30;67.40;;;;;;5043509;28;20029;-61
2023/08/05 08:31:06;;;;;;;4.32;3.15;;;20.40;67.30;;;;;;5044184;28;20043;-61
2023/08/05 08:33:32;;;;;;;4.03;2.55;;;20.40;67.20;;;;;;5045677;28;20092;-63
2023/08/05 08:35:58;;;;;;;4.50;2.95;;;20.50;67.20;;;;;;5047527;28;20029;-62
2023/08/05 08:38:24;;;;;;;4.60;2.92;;;20.50;67.20;;;;;;5042063;28;20564;-62
2023/08/05 08:40:51;;;;;;;6.68;3.03;;;20.60;66.90;;;;;;5042477;28;20029;-62
2023/08/05 08:43:20;;;;;;;5.57;3.55;;;20.60;66.30;;;;;;5046419;28;20037;-61
2023/08/05 08:45:50;;;;;;;4.90;3.22;;;20.60;65.90;;;;;;5044885;28;20025;-62
2023/08/05 08:48:16;;;;;;;5.57;3.10;;;20.60;65.90;;;;;;5042642;28;20038;-63
2023/08/05 08:50:43;;;;;;;4.03;3.22;;;20.60;66.00;;;;;;5042316;28;20041;-61
2023/08/05 08:53:12;;;;;;;8.77;3.28;;;20.50;66.30;;;;;;5045138;28;20071;-62
2023/08/05 08:55:39;;;;;;;7.22;3.33;;;20.50;66.10;;;;;;5044019;28;20047;-61
2023/08/05 08:58:05;;;;;;;8.30;3.05;;;20.40;65.70;;;;;;5048539;28;20559;-61
2023/08/05 09:00:32;;;;;;;5.15;3.20;;;20.40;65.80;;;;;;5034576;28;20789;-62
2023/08/05 09:03:00;;;;;;;5.22;3.40;;;20.40;66.10;;;;;;5043996;28;20103;-61
2023/08/05 09:05:34;;;;;;;4.65;3.03;;;20.30;66.20;;;;;;5045336;28;20068;-62
2023/08/05 09:08:02;;;;;;;5.70;3.17;;;20.30;66.20;;;;;;5023829;28;20090;-62
2023/08/05 09:10:27;;;;;;;7.70;3.30;;;20.40;66.10;;;;;;5047897;28;20068;-61
2023/08/05 09:12:57;;;;;;;4.90;2.67;;;20.40;66.00;;;;;;5042773;28;20503;-63
2023/08/05 09:15:30;;;;;;;3.10;2.40;;;20.40;66.20;;;;;;5042867;28;20079;-62
2023/08/05 09:17:57;;;;;;;5.72;2.65;;;20.50;66.40;;;;;;4963740;28;20075;-62
2023/08/05 09:20:24;;;;;;;5.82;2.67;;;20.60;66.90;;;;;;5044652;28;20045;-62
2023/08/05 09:22:55;;;;;;;5.43;2.50;;;20.70;67.20;;;;;;5042034;28;20466;-62
2023/08/05 09:25:21;;;;;;;5.53;2.75;;;20.90;66.50;;;;;;5037617;28;20017;-62
2023/08/05 09:27:47;;;;;;;3.20;2.40;;;21.00;66.10;;;;;;5029260;28;20040;-62
2023/08/05 09:30:17;;;;;;;6.95;2.47;;;21.10;65.40;;;;;;5044584;28;20029;-62
2023/08/05 09:32:46;;;;;;;7.47;2.50;;;21.20;64.90;;;;;;5031251;28;20036;-62
2023/08/05 09:35:13;;;;;;;3.70;2.60;;;21.30;64.90;;;;;;5041548;28;20071;-62
2023/08/05 09:37:49;;;;;;;2.75;2.22;;;21.50;64.70;;;;;;5045447;28;20028;-61
2023/08/05 09:40:19;;;;;;;2.38;1.90;;;21.60;64.30;;;;;;5042549;28;20048;-62
2023/08/05 09:42:50;;;;;;;6.20;2.30;;;21.70;64.00;;;;;;5046312;28;20052;-62
2023/08/05 09:45:17;;;;;;;3.00;2.20;;;21.80;63.30;;;;;;5042492;28;20067;-61
2023/08/05 09:47:46;;;;;;;3.67;2.15;;;21.90;62.50;;;;;;5025834;28;20112;-62
2023/08/05 09:50:16;;;;;;;5.32;2.70;;;22.00;61.90;;;;;;5043889;28;20037;-62
2023/08/05 09:52:43;;;;;;;4.45;2.55;;;22.00;61.50;;;;;;5046425;28;20056;-62
2023/08/05 09:55:17;;;;;;;3.90;2.60;;;21.90;61.60;;;;;;5043464;28;20029;-62
2023/08/05 09:57:43;;;;;;;;;;;21.90;62.10;;;;;;5044297;28;20042;-62
2023/08/05 10:00:14;;;;;;;7.45;2.50;;;22.00;62.30;;;;;;5040378;28;19909;-62
2023/08/05 10:02:44;;;;;;;7.45;2.63;;;22.00;62.30;;;;;;5038634;28;20040;-62
2023/08/05 10:05:12;;;;;;;11.18;3.17;;;22.00;61.70;;;;;;5038528;28;20107;-62
2023/08/05 10:07:40;;;;;;;7.43;2.60;;;21.90;61.10;;;;;;5038881;28;20025;-62
2023/08/05 10:10:16;;;;;;;4.90;2.38;;;21.90;61.50;;;;;;5043157;28;20040;-63
2023/08/05 10:12:56;;;;;;;4.13;2.58;;;21.80;61.50;;;;;;5040030;28;20025;-62
2023/08/05 10:15:27;;;;;;;3.63;2.40;;;21.80;62.10;;;;;;5039843;28;20044;-62
2023/08/05 10:17:53;;;;;;;4.80;3.00;;;21.80;61.70;;;;;;4947376;28;20026;-62
2023/08/05 10:20:19;;;;;;;5.60;2.47;;;21.80;61.60;;;;;;5019816;28;20037;-63
2023/08/05 10:23:08;;;;;;;6.57;2.30;;;21.80;61.40;;;;;;5042402;28;20027;-62
2023/08/05 10:25:45;;;;;;;4.13;2.30;;;21.80;61.10;;;;;;5048642;28;20035;-63
2023/08/05 10:28:39;;;;;;;2.88;2.08;;;21.90;61.70;;;;;;5033383;28;20057;-62
2023/08/05 10:31:27;;;;;;;2.42;1.83;;;22.00;60.50;;;;;;5044625;28;20037;-61
2023/08/05 10:34:16;;;;;;;2.90;2.08;;;22.10;61.30;;;;;;5044737;28;20606;-62
2023/08/05 10:36:44;;;;;;;5.68;2.60;;;22.20;61.10;;;;;;5042195;28;20033;-61
2023/08/05 10:39:39;;;;;;;4.28;2.22;;;22.50;61.50;;;;;;5042250;28;20033;-62
2023/08/05 10:42:30;;;;;;;2.75;2.17;;;22.70;60.60;;;;;;5025218;28;20037;-62
2023/08/05 10:44:57;;;;;;;3.08;1.80;;;22.90;60.50;;;;;;5045501;28;20425;-62
2023/08/05 10:47:23;;;;;;;2.15;1.80;;;23.00;60.00;;;;;;5036435;28;20106;-63
2023/08/05 10:50:00;;;;;;;1.92;1.48;;;23.20;59.70;;;;;;5038812;28;20068;-62
2023/08/05 10:52:26;;;;;;;3.90;1.80;;;23.40;59.50;;;;;;5033044;28;20029;-62
2023/08/05 10:54:53;;;;;;;3.78;1.63;;;23.70;58.80;;;;;;5042552;28;20029;-61
2023/08/05 10:57:43;;;;;;;2.55;1.83;;;23.80;58.20;;;;;;5041839;28;20559;-62
2023/08/05 11:00:18;;;;;;;2.92;1.55;;;24.10;57.40;;;;;;5041439;28;20033;-62
2023/08/05 11:02:44;;;;;;;2.80;1.55;;;24.20;55.90;;;;;;5034416;28;20029;-62
2023/08/05 11:05:09;;;;;;;2.70;1.45;;;24.30;56.00;;;;;;5026702;28;20136;-63
2023/08/05 11:07:39;;;;;;;2.75;1.60;;;24.20;56.00;;;;;;5018027;28;20041;-62
2023/08/05 11:10:06;;;;;;;2.90;1.83;;;24.20;54.80;;;;;;5040814;28;20456;-63
2023/08/05 11:12:32;;;;;;;7.80;1.92;;;24.10;55.10;;;;;;5024202;28;20049;-62
2023/08/05 11:15:01;;;;;;;2.40;1.70;;;23.90;55.00;;;;;;5048021;28;20183;-61
2023/08/05 11:17:26;;;;;;;2.35;1.60;;;23.70;55.20;;;;;;4974941;28;20089;-62
2023/08/05 11:19:57;;;;;;;2.78;1.90;;;23.60;55.60;;;;;;5038200;28;20061;-63
2023/08/05 11:22:35;;;;;;;2.17;1.50;;;23.50;55.80;;;;;;5041233;28;20053;-62
2023/08/05 11:25:02;;;;;;;2.05;1.63;;;23.50;55.50;;;;;;5037630;28;20038;-62
2023/08/05 11:27:39;;;;;;;2.17;1.45;;;23.50;56.40;;;;;;5041366;28;20025;-62
2023/08/05 11:30:18;;;;;;;10.98;7.35;;;23.40;56.00;;;;;;5039330;28;20140;-61
2023/08/05 11:32:55;;;;;;;7.25;2.70;;;23.40;55.60;;;;;;5043180;28;20033;-62
2023/08/05 11:35:21;;;;;;;3.55;1.75;;;23.30;55.30;;;;;;5042610;28;20032;-61
2023/08/05 11:37:47;;;;;;;2.63;1.73;;;23.30;56.10;;;;;;5043955;28;20020;-62
2023/08/05 11:40:13;;;;;;;4.93;1.80;;;23.20;56.20;;;;;;5042327;28;20112;-61
2023/08/05 11:42:40;;;;;;;3.85;2.75;;;23.30;56.40;;;;;;5036564;28;20014;-61
2023/08/05 11:45:13;;;;;;;5.85;2.95;;;23.40;57.10;;;;;;5039602;28;20032;-60
2023/08/05 11:47:41;;;;;;;30.25;20.35;;;23.60;57.60;;;;;;5039851;28;20084;-61
2023/08/05 11:50:08;;;;;;;53.30;41.92;;;23.90;57.50;;;;;;5035436;28;20045;-60
2023/08/05 11:52:34;;;;;;;17.85;15.13;;;24.20;57.00;;;;;;5042829;28;20128;-61
2023/08/05 11:55:03;;;;;;;7.15;6.15;;;24.50;56.80;;;;;;5042190;28;20116;-61
2023/08/05 11:57:29;;;;;;;2.97;2.22;;;24.90;56.30;;;;;;5038856;28;20083;-61
2023/08/05 11:59:57;;;;;;;4.03;1.63;;;25.20;53.90;;;;;;5036314;28;20485;-62
2023/08/05 12:02:26;;;;;;;3.03;1.40;;;25.50;53.70;;;;;;5038321;28;20029;-62
2023/08/05 12:04:57;;;;;;;3.05;1.17;;;25.60;52.30;;;;;;5043106;28;20029;-63
2023/08/05 12:07:23;;;;;;;1.45;1.30;;;25.80;50.60;;;;;;5034929;28;20021;-62
2023/08/05 12:10:17;;;;;;;5.55;3.78;;;25.80;51.50;;;;;;5041120;28;20029;-61
2023/08/05 12:12:48;;;;;;;1.40;1.25;;;25.90;50.70;;;;;;5041519;28;20089;-62
2023/08/05 12:15:24;;;;;;;2.00;1.20;;;26.00;49.30;;;;;;5040770;28;20462;-62
2023/08/05 12:17:51;;;;;;;1.55;1.08;;;26.00;49.00;;;;;;4933245;28;20032;-62
2023/08/05 12:20:28;;;;;;;2.42;1.00;;;25.90;49.70;;;;;;5038172;28;20521;-63
2023/08/05 12:22:55;;;;;;;3.20;1.20;;;25.80;48.10;;;;;;5041782;28;20025;-62
2023/08/05 12:25:21;;;;;;;1.23;0.88;;;25.80;48.80;;;;;;5040376;28;20043;-61
2023/08/05 12:27:47;;;;;;;1.17;0.93;;;25.60;48.60;;;;;;5041010;28;20128;-61
2023/08/05 12:30:14;;;;;;;1.95;1.20;;;25.50;49.40;;;;;;5039086;28;20041;-62
2023/08/05 12:32:40;;;;;;;1.50;1.40;;;25.40;49.50;;;;;;5043937;28;20470;-61
2023/08/05 12:35:08;;;;;;;2.15;1.33;;;25.40;49.30;;;;;;5043523;28;20030;-62
2023/08/05 12:37:36;;;;;;;1.85;1.30;;;25.30;49.90;;;;;;5038956;28;20108;-62
2023/08/05 12:40:06;;;;;;;1.90;1.25;;;25.20;50.20;;;;;;5039171;28;20057;-61
2023/08/05 12:42:33;;;;;;;2.50;1.40;;;25.20;50.40;;;;;;5024158;28;20415;-62
2023/08/05 12:45:03;;;;;;;1.50;0.95;;;25.10;50.10;;;;;;5044090;28;20029;-62
2023/08/05 12:47:28;;;;;;;2.47;1.23;;;25.10;50.20;;;;;;5041536;28;20033;-62